sensor_id;sensor_type;location;lat;lon;timestamp;temperature;humidity
14670;DHT22;7423;48.722;9.350;2023-04-15T00:01:36;9.10;99.90
14670;DHT22;7423;48.722;9.350;2023-04-15T00:04:03;9.10;99.90
14670;DHT22;7423;48.722;9.350;2023-04-15T00:06:30;9.00;99.90
14670;DHT22;7423;48.722;9.350;2023-04-15T00:08:57;9.00;99.90
14670;DHT22;7423;48.722;9.350;2023-04-15T00:11:24;8.90;99.90
14670;DHT22;7423;48.722;9.350;2023-04-15T00:13:51;8.90;99.90
14670;DHT22;7423;48.722;9.350;2023-04-15T00:16:18;8.90;99.90
14670;DHT22;7423;48.722;9.350;2023-04-15T00:18:45;8.80;99.90
14670;DHT22;7423;48.722;9.350;2023-04-15T00:21:12;8.80;99.90
14670;DHT22;7423;48.722;9.350;2023-04-15T00:23:39;8.80;99.90
14670;DHT22;7423;48.722;9.350;2023-04-15T00:26:06;8.80;99.90
14670;DHT22;7423;48.722;9.350;2023-04-15T00:28:34;8.80;99.90
14670;DHT22;7423;48.722;9.350;2023-04-15T00:31:00;8.70;99.90
14670;DHT22;7423;48.722;9.350;2023-04-15T00:33:27;8.70;99.90
14670;DHT22;7423;48.722;9.350;2023-04-15T00:35:54;8.70;99.90
14670;DHT22;7423;48.722;9.350;2023-04-15T00:38:21;8.80;99.90
14670;DHT22;7423;48.722;9.350;2023-04-15T00:40:48;8.70;99.90
14670;DHT22;7423;48.722;9.350;2023-04-15T00:43:15;8.70;99.90
14670;DHT22;7423;48.722;9.350;2023-04-15T00:45:43;8.70;99.90
14670;DHT22;7423;48.722;9.350;2023-04-15T00:48:10;8.60;99.90
14670;DHT22;7423;48.722;9.350;2023-04-15T00:50:37;8.60;99.90
14670;DHT22;7423;48.722;9.350;2023-04-15T00:53:04;8.60;99.90
14670;DHT22;7423;48.722;9.350;2023-04-15T00:55:31;8.60;99.90
14670;DHT22;7423;48.722;9.350;2023-04-15T00:57:58;8.50;99.90
14670;DHT22;7423;48.722;9.350;2023-04-15T01:00:25;8.50;99.90
14670;DHT22;7423;48.722;9.350;2023-04-15T01:02:52;8.50;99.90
14670;DHT22;7423;48.722;9.350;2023-04-15T01:05:19;8.40;99.90
14670;DHT22;7423;48.722;9.350;2023-04-15T01:07:47;8.40;99.90
14670;DHT22;7423;48.722;9.350;2023-04-15T01:10:14;8.30;99.90
14670;DHT22;7423;48.722;9.350;2023-04-15T01:12:41;8.30;99.90
14670;DHT22;7423;48.722;9.350;2023-04-15T01:15:09;8.30;99.90
14670;DHT22;7423;48.722;9.350;2023-04-15T01:17:36;8.30;99.90
14670;DHT22;7423;48.722;9.350;2023-04-15T01:20:05;8.30;99.90
14670;DHT22;7423;48.722;9.350;2023-04-15T01:22:35;8.20;99.90
14670;DHT22;7423;48.722;9.350;2023-04-15T01:25:09;8.30;99.90
14670;DHT22;7423;48.722;9.350;2023-04-15T01:27:39;8.30;99.90
14670;DHT22;7423;48.722;9.350;2023-04-15T01:30:08;8.30;99.90
14670;DHT22;7423;48.722;9.350;2023-04-15T01:32:36;8.30;99.90
14670;DHT22;7423;48.722;9.350;2023-04-15T01:35:03;8.20;99.90
14670;DHT22;7423;48.722;9.350;2023-04-15T01:37:31;8.20;99.90
14670;DHT22;7423;48.722;9.350;2023-04-15T01:39:58;8.10;99.90
14670;DHT22;7423;48.722;9.350;2023-04-15T01:42:25;8.10;99.90
14670;DHT22;7423;48.722;9.350;2023-04-15T01:44:53;8.10;99.90
14670;DHT22;7423;48.722;9.350;2023-04-15T01:47:20;8.10;99.90
14670;DHT22;7423;48.722;9.350;2023-04-15T01:49:47;8.10;99.90
14670;DHT22;7423;48.722;9.350;2023-04-15T01:52:14;8.10;99.90
14670;DHT22;7423;48.722;9.350;2023-04-15T01:54:41;8.10;99.90
14670;DHT22;7423;48.722;9.350;2023-04-15T01:57:08;8.10;99.90
14670;DHT22;7423;48.722;9.350;2023-04-15T01:59:35;8.00;99.90
14670;DHT22;7423;48.722;9.350;2023-04-15T02:02:03;8.00;99.90
14670;DHT22;7423;48.722;9.350;2023-04-15T02:04:30;7.80;99.90
14670;DHT22;7423;48.722;9.350;2023-04-15T02:06:57;7.80;99.90
14670;DHT22;7423;48.722;9.350;2023-04-15T02:09:24;7.80;99.90
14670;DHT22;7423;48.722;9.350;2023-04-15T02:11:51;7.80;99.90
14670;DHT22;7423;48.722;9.350;2023-04-15T02:14:19;7.80;99.90
14670;DHT22;7423;48.722;9.350;2023-04-15T02:16:47;7.80;99.90
14670;DHT22;7423;48.722;9.350;2023-04-15T02:19:13;7.70;99.90
14670;DHT22;7423;48.722;9.350;2023-04-15T02:21:40;7.70;99.90
14670;DHT22;7423;48.722;9.350;2023-04-15T02:24:07;7.70;99.90
14670;DHT22;7423;48.722;9.350;2023-04-15T02:26:34;7.70;99.90
14670;DHT22;7423;48.722;9.350;2023-04-15T02:29:01;7.70;99.90
14670;DHT22;7423;48.722;9.350;2023-04-15T02:31:28;7.70;99.90
14670;DHT22;7423;48.722;9.350;2023-04-15T02:33:55;7.70;99.90
14670;DHT22;7423;48.722;9.350;2023-04-15T02:36:22;7.60;99.90
14670;DHT22;7423;48.722;9.350;2023-04-15T02:38:49;7.50;99.90
14670;DHT22;7423;48.722;9.350;2023-04-15T02:41:16;7.40;99.90
14670;DHT22;7423;48.722;9.350;2023-04-15T02:43:44;7.40;99.90
14670;DHT22;7423;48.722;9.350;2023-04-15T02:46:11;7.30;99.90
14670;DHT22;7423;48.722;9.350;2023-04-15T02:48:40;7.30;99.90
14670;DHT22;7423;48.722;9.350;2023-04-15T02:51:14;7.30;99.90
14670;DHT22;7423;48.722;9.350;2023-04-15T02:53:43;7.30;99.90
14670;DHT22;7423;48.722;9.350;2023-04-15T02:56:11;7.30;99.90
14670;DHT22;7423;48.722;9.350;2023-04-15T02:58:38;7.30;99.90
14670;DHT22;7423;48.722;9.350;2023-04-15T03:01:05;7.30;99.90
14670;DHT22;7423;48.722;9.350;2023-04-15T03:03:34;7.20;99.90
14670;DHT22;7423;48.722;9.350;2023-04-15T03:06:01;7.20;99.90
14670;DHT22;7423;48.722;9.350;2023-04-15T03:08:28;7.20;99.90
14670;DHT22;7423;48.722;9.350;2023-04-15T03:10:57;7.10;99.90
14670;DHT22;7423;48.722;9.350;2023-04-15T03:13:26;7.10;99.90
14670;DHT22;7423;48.722;9.350;2023-04-15T03:15:53;7.10;99.90
14670;DHT22;7423;48.722;9.350;2023-04-15T03:18:19;7.00;99.90
14670;DHT22;7423;48.722;9.350;2023-04-15T03:20:47;7.00;99.90
14670;DHT22;7423;48.722;9.350;2023-04-15T03:23:13;7.00;99.90
14670;DHT22;7423;48.722;9.350;2023-04-15T03:25:41;7.00;99.90
14670;DHT22;7423;48.722;9.350;2023-04-15T03:28:07;7.10;99.90
14670;DHT22;7423;48.722;9.350;2023-04-15T03:30:34;7.10;99.90
14670;DHT22;7423;48.722;9.350;2023-04-15T03:33:01;7.10;99.90
14670;DHT22;7423;48.722;9.350;2023-04-15T03:35:28;7.20;99.90
14670;DHT22;7423;48.722;9.350;2023-04-15T03:37:55;7.20;99.90
14670;DHT22;7423;48.722;9.350;2023-04-15T03:40:22;7.20;99.90
14670;DHT22;7423;48.722;9.350;2023-04-15T03:42:49;7.20;99.90
14670;DHT22;7423;48.722;9.350;2023-04-15T03:45:16;7.20;99.90
14670;DHT22;7423;48.722;9.350;2023-04-15T03:47:43;7.20;99.90
14670;DHT22;7423;48.722;9.350;2023-04-15T03:50:10;7.10;99.90
14670;DHT22;7423;48.722;9.350;2023-04-15T03:52:37;7.10;99.90
14670;DHT22;7423;48.722;9.350;2023-04-15T03:55:04;7.10;99.90
14670;DHT22;7423;48.722;9.350;2023-04-15T03:57:31;7.10;99.90
14670;DHT22;7423;48.722;9.350;2023-04-15T03:59:58;7.10;99.90
14670;DHT22;7423;48.722;9.350;2023-04-15T04:02:25;7.00;99.90
14670;DHT22;7423;48.722;9.350;2023-04-15T04:04:53;7.10;99.90
14670;DHT22;7423;48.722;9.350;2023-04-15T04:07:22;7.10;99.90
14670;DHT22;7423;48.722;9.350;2023-04-15T04:09:49;7.20;99.90
14670;DHT22;7423;48.722;9.350;2023-04-15T04:12:16;7.20;99.90
14670;DHT22;7423;48.722;9.350;2023-04-15T04:14:43;7.10;99.90
14670;DHT22;7423;48.722;9.350;2023-04-15T04:17:10;7.00;99.90
14670;DHT22;7423;48.722;9.350;2023-04-15T04:19:37;7.00;99.90
14670;DHT22;7423;48.722;9.350;2023-04-15T04:22:04;7.00;99.90
14670;DHT22;7423;48.722;9.350;2023-04-15T04:24:30;7.00;99.90
14670;DHT22;7423;48.722;9.350;2023-04-15T04:26:57;7.00;99.90
14670;DHT22;7423;48.722;9.350;2023-04-15T04:29:25;7.00;99.90
14670;DHT22;7423;48.722;9.350;2023-04-15T04:31:52;7.00;99.90
14670;DHT22;7423;48.722;9.350;2023-04-15T04:34:19;6.90;99.90
14670;DHT22;7423;48.722;9.350;2023-04-15T04:36:46;6.80;99.90
14670;DHT22;7423;48.722;9.350;2023-04-15T04:39:12;6.80;99.90
14670;DHT22;7423;48.722;9.350;2023-04-15T04:41:39;6.90;99.90
14670;DHT22;7423;48.722;9.350;2023-04-15T04:44:06;6.90;99.90
14670;DHT22;7423;48.722;9.350;2023-04-15T04:46:33;6.90;99.90
14670;DHT22;7423;48.722;9.350;2023-04-15T04:49:00;6.90;99.90
14670;DHT22;7423;48.722;9.350;2023-04-15T04:51:27;6.90;99.90
14670;DHT22;7423;48.722;9.350;2023-04-15T04:53:54;6.90;99.90
14670;DHT22;7423;48.722;9.350;2023-04-15T04:56:22;6.90;99.90
14670;DHT22;7423;48.722;9.350;2023-04-15T04:58:48;6.90;99.90
14670;DHT22;7423;48.722;9.350;2023-04-15T05:01:16;6.90;99.90
14670;DHT22;7423;48.722;9.350;2023-04-15T05:03:43;6.90;99.90
14670;DHT22;7423;48.722;9.350;2023-04-15T05:06:10;6.90;99.90
14670;DHT22;7423;48.722;9.350;2023-04-15T05:08:36;6.90;99.90
14670;DHT22;7423;48.722;9.350;2023-04-15T05:11:05;6.80;99.90
14670;DHT22;7423;48.722;9.350;2023-04-15T05:13:32;6.80;99.90
14670;DHT22;7423;48.722;9.350;2023-04-15T05:15:59;6.80;99.90
14670;DHT22;7423;48.722;9.350;2023-04-15T05:18:26;6.80;99.90
14670;DHT22;7423;48.722;9.350;2023-04-15T05:20:53;6.80;99.90
14670;DHT22;7423;48.722;9.350;2023-04-15T05:23:20;6.80;99.90
14670;DHT22;7423;48.722;9.350;2023-04-15T05:25:47;6.80;99.90
14670;DHT22;7423;48.722;9.350;2023-04-15T05:28:14;6.80;99.90
14670;DHT22;7423;48.722;9.350;2023-04-15T05:30:41;6.80;99.90
14670;DHT22;7423;48.722;9.350;2023-04-15T05:33:08;6.80;99.90
14670;DHT22;7423;48.722;9.350;2023-04-15T05:35:34;6.80;99.90
14670;DHT22;7423;48.722;9.350;2023-04-15T05:38:01;6.80;99.90
14670;DHT22;7423;48.722;9.350;2023-04-15T05:40:31;6.90;99.90
14670;DHT22;7423;48.722;9.350;2023-04-15T05:42:58;6.90;99.90
14670;DHT22;7423;48.722;9.350;2023-04-15T05:45:25;6.90;99.90
14670;DHT22;7423;48.722;9.350;2023-04-15T05:47:52;7.50;99.90
14670;DHT22;7423;48.722;9.350;2023-04-15T05:50:20;6.90;99.90
14670;DHT22;7423;48.722;9.350;2023-04-15T05:52:47;7.00;99.90
14670;DHT22;7423;48.722;9.350;2023-04-15T05:55:14;7.00;99.90
14670;DHT22;7423;48.722;9.350;2023-04-15T05:57:41;6.90;99.90
14670;DHT22;7423;48.722;9.350;2023-04-15T06:00:08;7.00;99.90
14670;DHT22;7423;48.722;9.350;2023-04-15T06:02:36;7.00;99.90
14670;DHT22;7423;48.722;9.350;2023-04-15T06:05:03;7.00;99.90
14670;DHT22;7423;48.722;9.350;2023-04-15T06:07:36;7.10;99.90
14670;DHT22;7423;48.722;9.350;2023-04-15T06:10:03;7.10;99.90
14670;DHT22;7423;48.722;9.350;2023-04-15T06:12:31;7.10;99.90
14670;DHT22;7423;48.722;9.350;2023-04-15T06:14:58;7.20;99.90
14670;DHT22;7423;48.722;9.350;2023-04-15T06:17:26;7.20;99.90
14670;DHT22;7423;48.722;9.350;2023-04-15T06:19:52;7.30;99.90
14670;DHT22;7423;48.722;9.350;2023-04-15T06:22:22;7.30;99.90
14670;DHT22;7423;48.722;9.350;2023-04-15T06:24:49;7.40;99.90
14670;DHT22;7423;48.722;9.350;2023-04-15T06:27:17;7.40;99.90
14670;DHT22;7423;48.722;9.350;2023-04-15T06:29:44;7.50;99.90
14670;DHT22;7423;48.722;9.350;2023-04-15T06:32:11;7.50;99.90
14670;DHT22;7423;48.722;9.350;2023-04-15T06:34:38;7.60;99.90
14670;DHT22;7423;48.722;9.350;2023-04-15T06:37:05;7.60;99.90
14670;DHT22;7423;48.722;9.350;2023-04-15T06:39:32;7.70;99.90
14670;DHT22;7423;48.722;9.350;2023-04-15T06:41:59;7.80;99.90
14670;DHT22;7423;48.722;9.350;2023-04-15T06:44:26;7.90;99.90
14670;DHT22;7423;48.722;9.350;2023-04-15T06:46:53;7.90;99.90
14670;DHT22;7423;48.722;9.350;2023-04-15T06:49:20;8.00;99.90
14670;DHT22;7423;48.722;9.350;2023-04-15T06:51:47;8.00;99.90
14670;DHT22;7423;48.722;9.350;2023-04-15T06:54:14;8.10;99.90
14670;DHT22;7423;48.722;9.350;2023-04-15T06:56:41;8.20;99.90
14670;DHT22;7423;48.722;9.350;2023-04-15T06:59:08;8.20;99.90
14670;DHT22;7423;48.722;9.350;2023-04-15T07:01:35;8.30;99.90
14670;DHT22;7423;48.722;9.350;2023-04-15T07:04:02;8.30;99.90
14670;DHT22;7423;48.722;9.350;2023-04-15T07:06:29;8.30;99.90
14670;DHT22;7423;48.722;9.350;2023-04-15T07:08:55;8.40;99.90
14670;DHT22;7423;48.722;9.350;2023-04-15T07:11:24;8.50;99.90
14670;DHT22;7423;48.722;9.350;2023-04-15T07:13:51;8.50;99.90
14670;DHT22;7423;48.722;9.350;2023-04-15T07:16:18;8.50;99.90
14670;DHT22;7423;48.722;9.350;2023-04-15T07:18:45;8.60;99.90
14670;DHT22;7423;48.722;9.350;2023-04-15T07:21:12;8.60;99.90
14670;DHT22;7423;48.722;9.350;2023-04-15T07:23:39;8.70;99.90
14670;DHT22;7423;48.722;9.350;2023-04-15T07:26:07;8.60;99.90
14670;DHT22;7423;48.722;9.350;2023-04-15T07:28:34;8.70;99.90
14670;DHT22;7423;48.722;9.350;2023-04-15T07:31:01;8.80;99.90
14670;DHT22;7423;48.722;9.350;2023-04-15T07:33:28;8.80;99.90
14670;DHT22;7423;48.722;9.350;2023-04-15T07:35:55;8.80;99.90
14670;DHT22;7423;48.722;9.350;2023-04-15T07:38:22;8.90;99.90
14670;DHT22;7423;48.722;9.350;2023-04-15T07:40:49;8.90;99.90
14670;DHT22;7423;48.722;9.350;2023-04-15T07:43:16;9.00;99.90
14670;DHT22;7423;48.722;9.350;2023-04-15T07:45:43;9.00;99.90
14670;DHT22;7423;48.722;9.350;2023-04-15T07:48:10;9.10;99.90
14670;DHT22;7423;48.722;9.350;2023-04-15T07:50:37;9.10;99.90
14670;DHT22;7423;48.722;9.350;2023-04-15T07:53:03;9.20;99.90
14670;DHT22;7423;48.722;9.350;2023-04-15T07:55:31;9.20;99.90
14670;DHT22;7423;48.722;9.350;2023-04-15T07:57:58;9.30;99.90
14670;DHT22;7423;48.722;9.350;2023-04-15T08:00:25;9.30;99.90
14670;DHT22;7423;48.722;9.350;2023-04-15T08:02:52;9.50;99.90
14670;DHT22;7423;48.722;9.350;2023-04-15T08:05:19;9.50;99.90
14670;DHT22;7423;48.722;9.350;2023-04-15T08:07:46;9.60;99.90
14670;DHT22;7423;48.722;9.350;2023-04-15T08:10:13;9.70;99.90
14670;DHT22;7423;48.722;9.350;2023-04-15T08:12:40;9.80;99.90
14670;DHT22;7423;48.722;9.350;2023-04-15T08:15:07;9.80;99.90
14670;DHT22;7423;48.722;9.350;2023-04-15T08:17:34;9.90;99.90
14670;DHT22;7423;48.722;9.350;2023-04-15T08:20:02;10.00;99.90
14670;DHT22;7423;48.722;9.350;2023-04-15T08:22:31;10.10;99.90
14670;DHT22;7423;48.722;9.350;2023-04-15T08:24:58;10.20;99.90
14670;DHT22;7423;48.722;9.350;2023-04-15T08:27:25;10.30;99.90
14670;DHT22;7423;48.722;9.350;2023-04-15T08:29:51;10.40;99.90
14670;DHT22;7423;48.722;9.350;2023-04-15T08:32:19;10.40;99.90
14670;DHT22;7423;48.722;9.350;2023-04-15T08:34:45;10.50;99.90
14670;DHT22;7423;48.722;9.350;2023-04-15T08:37:12;10.50;99.90
14670;DHT22;7423;48.722;9.350;2023-04-15T08:39:39;10.60;99.90
14670;DHT22;7423;48.722;9.350;2023-04-15T08:42:11;10.60;99.90
14670;DHT22;7423;48.722;9.350;2023-04-15T08:44:43;10.70;99.90
14670;DHT22;7423;48.722;9.350;2023-04-15T08:47:13;10.70;99.90
14670;DHT22;7423;48.722;9.350;2023-04-15T08:49:43;10.80;99.90
14670;DHT22;7423;48.722;9.350;2023-04-15T08:52:10;10.80;99.90
14670;DHT22;7423;48.722;9.350;2023-04-15T08:54:37;10.90;99.90
14670;DHT22;7423;48.722;9.350;2023-04-15T08:57:05;10.80;99.90
14670;DHT22;7423;48.722;9.350;2023-04-15T08:59:32;10.90;99.90
14670;DHT22;7423;48.722;9.350;2023-04-15T09:01:59;11.00;99.90
14670;DHT22;7423;48.722;9.350;2023-04-15T09:04:27;11.10;99.90
14670;DHT22;7423;48.722;9.350;2023-04-15T09:06:54;11.20;99.90
14670;DHT22;7423;48.722;9.350;2023-04-15T09:09:21;11.20;99.90
14670;DHT22;7423;48.722;9.350;2023-04-15T09:11:48;11.30;99.90
14670;DHT22;7423;48.722;9.350;2023-04-15T09:14:16;11.40;99.90
14670;DHT22;7423;48.722;9.350;2023-04-15T09:17:03;11.40;99.90
14670;DHT22;7423;48.722;9.350;2023-04-15T09:19:31;11.40;99.90
14670;DHT22;7423;48.722;9.350;2023-04-15T09:21:59;11.50;99.90
14670;DHT22;7423;48.722;9.350;2023-04-15T09:24:38;11.50;99.90
14670;DHT22;7423;48.722;9.350;2023-04-15T09:27:06;11.60;99.90
14670;DHT22;7423;48.722;9.350;2023-04-15T09:29:33;11.60;99.90
14670;DHT22;7423;48.722;9.350;2023-04-15T09:32:13;11.70;99.90
14670;DHT22;7423;48.722;9.350;2023-04-15T09:34:41;11.80;99.90
14670;DHT22;7423;48.722;9.350;2023-04-15T09:37:08;11.90;99.90
14670;DHT22;7423;48.722;9.350;2023-04-15T09:39:50;12.00;99.90
14670;DHT22;7423;48.722;9.350;2023-04-15T09:42:18;12.10;99.90
14670;DHT22;7423;48.722;9.350;2023-04-15T09:44:52;12.20;99.90
14670;DHT22;7423;48.722;9.350;2023-04-15T09:47:31;12.30;99.90
14670;DHT22;7423;48.722;9.350;2023-04-15T09:49:59;12.50;99.90
14670;DHT22;7423;48.722;9.350;2023-04-15T09:52:26;12.60;99.90
14670;DHT22;7423;48.722;9.350;2023-04-15T09:54:58;12.60;99.90
14670;DHT22;7423;48.722;9.350;2023-04-15T09:57:33;12.70;99.90
14670;DHT22;7423;48.722;9.350;2023-04-15T10:00:05;12.60;99.90
14670;DHT22;7423;48.722;9.350;2023-04-15T10:02:34;12.50;99.00
14670;DHT22;7423;48.722;9.350;2023-04-15T10:05:02;12.60;99.20
14670;DHT22;7423;48.722;9.350;2023-04-15T10:07:29;12.70;99.70
14670;DHT22;7423;48.722;9.350;2023-04-15T10:09:59;12.50;99.10
14670;DHT22;7423;48.722;9.350;2023-04-15T10:12:28;12.70;99.20
14670;DHT22;7423;48.722;9.350;2023-04-15T10:15:03;12.50;99.40
14670;DHT22;7423;48.722;9.350;2023-04-15T10:17:32;12.90;99.70
14670;DHT22;7423;48.722;9.350;2023-04-15T10:20:02;13.10;99.60
14670;DHT22;7423;48.722;9.350;2023-04-15T10:22:31;13.30;99.10
14670;DHT22;7423;48.722;9.350;2023-04-15T10:24:58;13.50;98.80
14670;DHT22;7423;48.722;9.350;2023-04-15T10:27:26;13.50;98.70
14670;DHT22;7423;48.722;9.350;2023-04-15T10:29:55;13.50;98.40
14670;DHT22;7423;48.722;9.350;2023-04-15T10:32:23;13.60;98.40
14670;DHT22;7423;48.722;9.350;2023-04-15T10:34:51;13.80;98.50
14670;DHT22;7423;48.722;9.350;2023-04-15T10:37:34;14.10;98.00
14670;DHT22;7423;48.722;9.350;2023-04-15T10:42:58;14.50;96.50
14670;DHT22;7423;48.722;9.350;2023-04-15T10:45:37;14.90;96.30
14670;DHT22;7423;48.722;9.350;2023-04-15T10:48:06;15.50;95.90
14670;DHT22;7423;48.722;9.350;2023-04-15T10:50:33;16.00;95.10
14670;DHT22;7423;48.722;9.350;2023-04-15T10:53:03;16.30;94.70
14670;DHT22;7423;48.722;9.350;2023-04-15T10:55:32;16.70;93.70
14670;DHT22;7423;48.722;9.350;2023-04-15T10:58:00;16.80;93.10
14670;DHT22;7423;48.722;9.350;2023-04-15T11:00:29;17.10;92.60
14670;DHT22;7423;48.722;9.350;2023-04-15T11:03:09;18.10;92.10
14670;DHT22;7423;48.722;9.350;2023-04-15T11:08:11;20.30;86.30
14670;DHT22;7423;48.722;9.350;2023-04-15T11:13:15;21.20;83.20
14670;DHT22;7423;48.722;9.350;2023-04-15T11:15:44;20.90;83.30
14670;DHT22;7423;48.722;9.350;2023-04-15T11:18:18;20.10;82.60
14670;DHT22;7423;48.722;9.350;2023-04-15T11:23:41;19.30;83.00
14670;DHT22;7423;48.722;9.350;2023-04-15T11:26:12;18.90;83.40
14670;DHT22;7423;48.722;9.350;2023-04-15T11:28:41;18.20;84.40
14670;DHT22;7423;48.722;9.350;2023-04-15T11:31:16;18.00;85.30
14670;DHT22;7423;48.722;9.350;2023-04-15T11:33:58;17.20;85.90
14670;DHT22;7423;48.722;9.350;2023-04-15T11:36:27;17.00;88.30
14670;DHT22;7423;48.722;9.350;2023-04-15T11:38:57;16.60;87.00
14670;DHT22;7423;48.722;9.350;2023-04-15T11:41:25;16.10;90.00
14670;DHT22;7423;48.722;9.350;2023-04-15T11:43:52;16.40;90.10
14670;DHT22;7423;48.722;9.350;2023-04-15T11:46:20;16.40;90.20
14670;DHT22;7423;48.722;9.350;2023-04-15T11:48:48;16.40;90.10
14670;DHT22;7423;48.722;9.350;2023-04-15T11:51:15;15.90;89.40
14670;DHT22;7423;48.722;9.350;2023-04-15T11:53:48;15.40;90.20
14670;DHT22;7423;48.722;9.350;2023-04-15T11:56:17;15.30;90.40
14670;DHT22;7423;48.722;9.350;2023-04-15T11:58:51;15.10;91.20
14670;DHT22;7423;48.722;9.350;2023-04-15T12:01:19;14.80;91.60
14670;DHT22;7423;48.722;9.350;2023-04-15T12:03:46;14.90;91.90
14670;DHT22;7423;48.722;9.350;2023-04-15T12:06:20;15.20;92.10
14670;DHT22;7423;48.722;9.350;2023-04-15T12:11:28;14.90;94.00
14670;DHT22;7423;48.722;9.350;2023-04-15T12:14:02;14.50;96.00
14670;DHT22;7423;48.722;9.350;2023-04-15T12:16:46;14.70;95.60
14670;DHT22;7423;48.722;9.350;2023-04-15T12:19:25;15.00;95.80
14670;DHT22;7423;48.722;9.350;2023-04-15T12:21:59;15.00;95.90
14670;DHT22;7423;48.722;9.350;2023-04-15T12:24:30;15.10;95.90
14670;DHT22;7423;48.722;9.350;2023-04-15T12:27:05;15.10;96.80
14670;DHT22;7423;48.722;9.350;2023-04-15T12:29:34;15.20;97.60
14670;DHT22;7423;48.722;9.350;2023-04-15T12:32:09;15.20;97.90
14670;DHT22;7423;48.722;9.350;2023-04-15T12:34:50;15.10;97.60
14670;DHT22;7423;48.722;9.350;2023-04-15T12:37:18;15.10;97.80
14670;DHT22;7423;48.722;9.350;2023-04-15T12:39:47;14.90;97.30
14670;DHT22;7423;48.722;9.350;2023-04-15T12:42:15;14.70;96.40
14670;DHT22;7423;48.722;9.350;2023-04-15T12:44:43;14.70;96.60
14670;DHT22;7423;48.722;9.350;2023-04-15T12:47:11;14.70;97.00
14670;DHT22;7423;48.722;9.350;2023-04-15T12:49:38;14.20;97.30
14670;DHT22;7423;48.722;9.350;2023-04-15T12:52:05;13.70;99.20
14670;DHT22;7423;48.722;9.350;2023-04-15T12:54:32;13.50;99.90
14670;DHT22;7423;48.722;9.350;2023-04-15T12:57:00;13.30;99.90
14670;DHT22;7423;48.722;9.350;2023-04-15T12:59:32;13.30;99.90
14670;DHT22;7423;48.722;9.350;2023-04-15T13:01:59;13.40;99.90
14670;DHT22;7423;48.722;9.350;2023-04-15T13:04:26;13.20;99.90
14670;DHT22;7423;48.722;9.350;2023-04-15T13:06:56;13.20;99.90
14670;DHT22;7423;48.722;9.350;2023-04-15T13:09:23;12.70;99.90
14670;DHT22;7423;48.722;9.350;2023-04-15T13:11:50;12.50;99.90
14670;DHT22;7423;48.722;9.350;2023-04-15T13:14:18;12.40;99.90
14670;DHT22;7423;48.722;9.350;2023-04-15T13:16:45;12.60;99.90
14670;DHT22;7423;48.722;9.350;2023-04-15T13:19:12;12.70;99.90
14670;DHT22;7423;48.722;9.350;2023-04-15T13:21:40;13.00;99.90
14670;DHT22;7423;48.722;9.350;2023-04-15T13:24:06;13.20;99.90
14670;DHT22;7423;48.722;9.350;2023-04-15T13:26:34;13.30;99.90
14670;DHT22;7423;48.722;9.350;2023-04-15T13:29:01;13.30;99.90
14670;DHT22;7423;48.722;9.350;2023-04-15T13:31:28;13.50;99.90
14670;DHT22;7423;48.722;9.350;2023-04-15T13:33:56;13.50;99.90
14670;DHT22;7423;48.722;9.350;2023-04-15T13:36:23;13.60;99.90
14670;DHT22;7423;48.722;9.350;2023-04-15T13:38:50;14.00;99.90
14670;DHT22;7423;48.722;9.350;2023-04-15T13:41:17;13.70;99.90
14670;DHT22;7423;48.722;9.350;2023-04-15T13:43:45;13.80;99.90
14670;DHT22;7423;48.722;9.350;2023-04-15T13:46:12;13.80;99.90
14670;DHT22;7423;48.722;9.350;2023-04-15T13:48:39;13.90;99.90
14670;DHT22;7423;48.722;9.350;2023-04-15T13:51:06;14.00;99.90
14670;DHT22;7423;48.722;9.350;2023-04-15T13:53:33;14.10;99.90
14670;DHT22;7423;48.722;9.350;2023-04-15T13:56:08;14.10;99.90
14670;DHT22;7423;48.722;9.350;2023-04-15T13:58:36;14.00;99.90
14670;DHT22;7423;48.722;9.350;2023-04-15T14:01:04;14.10;99.90
14670;DHT22;7423;48.722;9.350;2023-04-15T14:03:36;14.00;99.90
14670;DHT22;7423;48.722;9.350;2023-04-15T14:06:04;14.00;99.90
14670;DHT22;7423;48.722;9.350;2023-04-15T14:08:32;14.10;99.90
14670;DHT22;7423;48.722;9.350;2023-04-15T14:10:59;14.20;99.90
14670;DHT22;7423;48.722;9.350;2023-04-15T14:13:26;14.10;99.90
14670;DHT22;7423;48.722;9.350;2023-04-15T14:15:53;13.90;98.30
14670;DHT22;7423;48.722;9.350;2023-04-15T14:18:19;13.60;95.20
14670;DHT22;7423;48.722;9.350;2023-04-15T14:20:46;13.40;95.40
14670;DHT22;7423;48.722;9.350;2023-04-15T14:23:13;13.60;95.70
14670;DHT22;7423;48.722;9.350;2023-04-15T14:25:40;13.80;95.10
14670;DHT22;7423;48.722;9.350;2023-04-15T14:28:07;13.80;93.50
14670;DHT22;7423;48.722;9.350;2023-04-15T14:30:34;13.90;93.00
14670;DHT22;7423;48.722;9.350;2023-04-15T14:33:01;14.00;93.80
14670;DHT22;7423;48.722;9.350;2023-04-15T14:35:28;14.00;94.00
14670;DHT22;7423;48.722;9.350;2023-04-15T14:37:56;13.70;93.30
14670;DHT22;7423;48.722;9.350;2023-04-15T14:40:23;13.40;93.40
14670;DHT22;7423;48.722;9.350;2023-04-15T14:42:50;13.50;93.70
14670;DHT22;7423;48.722;9.350;2023-04-15T14:45:17;13.40;93.80
14670;DHT22;7423;48.722;9.350;2023-04-15T14:47:43;13.40;93.30
14670;DHT22;7423;48.722;9.350;2023-04-15T14:50:10;13.50;93.90
14670;DHT22;7423;48.722;9.350;2023-04-15T14:52:37;13.40;93.30
14670;DHT22;7423;48.722;9.350;2023-04-15T14:55:08;13.50;93.40
14670;DHT22;7423;48.722;9.350;2023-04-15T14:57:37;13.50;93.20
14670;DHT22;7423;48.722;9.350;2023-04-15T15:00:05;13.60;93.40
14670;DHT22;7423;48.722;9.350;2023-04-15T15:02:33;13.60;93.00
14670;DHT22;7423;48.722;9.350;2023-04-15T15:05:03;13.60;93.00
14670;DHT22;7423;48.722;9.350;2023-04-15T15:07:30;13.60;93.40
14670;DHT22;7423;48.722;9.350;2023-04-15T15:09:57;13.70;93.60
14670;DHT22;7423;48.722;9.350;2023-04-15T15:12:24;13.40;93.40
14670;DHT22;7423;48.722;9.350;2023-04-15T15:14:51;13.20;93.50
14670;DHT22;7423;48.722;9.350;2023-04-15T15:17:17;13.30;93.90
14670;DHT22;7423;48.722;9.350;2023-04-15T15:19:44;13.40;93.60
14670;DHT22;7423;48.722;9.350;2023-04-15T15:22:11;13.60;93.90
14670;DHT22;7423;48.722;9.350;2023-04-15T15:24:38;13.70;94.00
14670;DHT22;7423;48.722;9.350;2023-04-15T15:27:05;13.60;94.10
14670;DHT22;7423;48.722;9.350;2023-04-15T15:29:32;13.80;94.10
14670;DHT22;7423;48.722;9.350;2023-04-15T15:31:59;13.80;94.20
14670;DHT22;7423;48.722;9.350;2023-04-15T15:34:26;13.30;94.90
14670;DHT22;7423;48.722;9.350;2023-04-15T15:36:53;13.50;95.10
14670;DHT22;7423;48.722;9.350;2023-04-15T15:39:22;13.60;95.30
14670;DHT22;7423;48.722;9.350;2023-04-15T15:41:49;13.60;95.20
14670;DHT22;7423;48.722;9.350;2023-04-15T15:44:16;13.50;95.50
14670;DHT22;7423;48.722;9.350;2023-04-15T15:46:43;13.50;95.80
14670;DHT22;7423;48.722;9.350;2023-04-15T15:49:10;13.40;95.90
14670;DHT22;7423;48.722;9.350;2023-04-15T15:51:37;13.50;96.30
14670;DHT22;7423;48.722;9.350;2023-04-15T15:54:03;13.40;96.70
14670;DHT22;7423;48.722;9.350;2023-04-15T15:56:31;13.20;97.60
14670;DHT22;7423;48.722;9.350;2023-04-15T15:58:58;12.90;97.50
14670;DHT22;7423;48.722;9.350;2023-04-15T16:01:25;12.80;97.90
14670;DHT22;7423;48.722;9.350;2023-04-15T16:03:52;13.00;98.00
14670;DHT22;7423;48.722;9.350;2023-04-15T16:06:19;13.10;98.00
14670;DHT22;7423;48.722;9.350;2023-04-15T16:08:46;13.10;98.20
14670;DHT22;7423;48.722;9.350;2023-04-15T16:11:13;13.10;98.30
14670;DHT22;7423;48.722;9.350;2023-04-15T16:13:40;13.20;98.50